Terminal Aerodrome Forecast
Issued by NWS

Current Version | Previous Version | Graphics & Text | Print | Product List | Glossary On
Versions: 1 2 3 4 5 6 7 8 9 10 11 12 13 14 15 16 17
650
FTUS41 KILN 201301 AAA
TAFLUK
TAF AMD
KLUK 201301Z 2013/2112 00000KT 4SM BR FEW250
      TEMPO 2013/2014 1/4SM FG VV002
     FM201400 17004KT P6SM FEW250
     FM210000 15003KT P6SM SCT250
     FM210300 00000KT 2SM BR SCT250
     FM210800 00000KT 1/4SM FG VV002=

USA.gov is the U.S. government's official web portal to all federal, state and local government web resources and services.